sensor_id;sensor_type;location;lat;lon;timestamp;temperature;humidity
25550;DHT22;13444;50.562;7.262;2023-06-14T00:02:11;16.40;99.90
25550;DHT22;13444;50.562;7.262;2023-06-14T00:04:37;16.40;99.90
25550;DHT22;13444;50.562;7.262;2023-06-14T00:07:05;16.30;99.90
25550;DHT22;13444;50.562;7.262;2023-06-14T00:09:33;16.20;99.90
25550;DHT22;13444;50.562;7.262;2023-06-14T00:11:59;16.20;99.90
25550;DHT22;13444;50.562;7.262;2023-06-14T00:14:24;16.20;99.90
25550;DHT22;13444;50.562;7.262;2023-06-14T00:16:50;16.20;99.90
25550;DHT22;13444;50.562;7.262;2023-06-14T00:19:17;16.30;99.90
25550;DHT22;13444;50.562;7.262;2023-06-14T00:21:43;16.20;99.90
25550;DHT22;13444;50.562;7.262;2023-06-14T00:24:09;16.20;99.90
25550;DHT22;13444;50.562;7.262;2023-06-14T00:26:34;16.10;99.90
25550;DHT22;13444;50.562;7.262;2023-06-14T00:29:00;16.10;99.90
25550;DHT22;13444;50.562;7.262;2023-06-14T00:31:25;16.10;99.90
25550;DHT22;13444;50.562;7.262;2023-06-14T00:33:51;16.10;99.90
25550;DHT22;13444;50.562;7.262;2023-06-14T00:36:16;16.10;99.90
25550;DHT22;13444;50.562;7.262;2023-06-14T00:38:42;16.10;99.90
25550;DHT22;13444;50.562;7.262;2023-06-14T00:41:07;16.10;99.90
25550;DHT22;13444;50.562;7.262;2023-06-14T00:43:33;16.10;99.90
25550;DHT22;13444;50.562;7.262;2023-06-14T00:46:00;16.10;99.90
25550;DHT22;13444;50.562;7.262;2023-06-14T00:48:27;16.10;99.90
25550;DHT22;13444;50.562;7.262;2023-06-14T00:50:52;16.00;99.90
25550;DHT22;13444;50.562;7.262;2023-06-14T00:53:19;16.00;99.90
25550;DHT22;13444;50.562;7.262;2023-06-14T00:55:46;16.00;99.90
25550;DHT22;13444;50.562;7.262;2023-06-14T00:58:12;15.90;99.90
25550;DHT22;13444;50.562;7.262;2023-06-14T01:00:38;15.90;99.90
25550;DHT22;13444;50.562;7.262;2023-06-14T01:03:04;15.90;99.90
25550;DHT22;13444;50.562;7.262;2023-06-14T01:05:30;15.90;99.90
25550;DHT22;13444;50.562;7.262;2023-06-14T01:11:13;15.80;99.90
25550;DHT22;13444;50.562;7.262;2023-06-14T01:13:43;15.80;99.90
25550;DHT22;13444;50.562;7.262;2023-06-14T01:16:11;15.80;99.90
25550;DHT22;13444;50.562;7.262;2023-06-14T01:18:37;15.70;99.90
25550;DHT22;13444;50.562;7.262;2023-06-14T01:21:03;15.70;99.90
25550;DHT22;13444;50.562;7.262;2023-06-14T01:23:31;15.60;99.90
25550;DHT22;13444;50.562;7.262;2023-06-14T01:26:00;15.60;99.90
25550;DHT22;13444;50.562;7.262;2023-06-14T01:28:28;15.60;99.90
25550;DHT22;13444;50.562;7.262;2023-06-14T01:31:00;15.50;99.90
25550;DHT22;13444;50.562;7.262;2023-06-14T01:33:27;15.50;99.90
25550;DHT22;13444;50.562;7.262;2023-06-14T01:35:54;15.50;99.90
25550;DHT22;13444;50.562;7.262;2023-06-14T01:38:26;15.40;99.90
25550;DHT22;13444;50.562;7.262;2023-06-14T01:40:53;15.40;99.90
25550;DHT22;13444;50.562;7.262;2023-06-14T01:43:20;15.40;99.90
25550;DHT22;13444;50.562;7.262;2023-06-14T01:45:47;15.30;99.90
25550;DHT22;13444;50.562;7.262;2023-06-14T01:48:13;15.30;99.90
25550;DHT22;13444;50.562;7.262;2023-06-14T01:50:38;15.20;99.90
25550;DHT22;13444;50.562;7.262;2023-06-14T01:53:07;15.20;99.90
25550;DHT22;13444;50.562;7.262;2023-06-14T01:55:33;15.20;99.90
25550;DHT22;13444;50.562;7.262;2023-06-14T01:58:03;15.20;99.90
25550;DHT22;13444;50.562;7.262;2023-06-14T02:00:28;15.20;99.90
25550;DHT22;13444;50.562;7.262;2023-06-14T02:02:54;15.20;99.90
25550;DHT22;13444;50.562;7.262;2023-06-14T02:05:19;15.20;99.90
25550;DHT22;13444;50.562;7.262;2023-06-14T02:07:45;15.20;99.90
25550;DHT22;13444;50.562;7.262;2023-06-14T02:10:12;15.20;99.90
25550;DHT22;13444;50.562;7.262;2023-06-14T02:12:37;15.10;99.90
25550;DHT22;13444;50.562;7.262;2023-06-14T02:15:03;15.00;99.90
25550;DHT22;13444;50.562;7.262;2023-06-14T02:17:29;15.00;99.90
25550;DHT22;13444;50.562;7.262;2023-06-14T02:19:55;14.90;99.90
25550;DHT22;13444;50.562;7.262;2023-06-14T02:22:22;14.90;99.90
25550;DHT22;13444;50.562;7.262;2023-06-14T02:24:48;15.00;99.90
25550;DHT22;13444;50.562;7.262;2023-06-14T02:27:14;14.90;99.90
25550;DHT22;13444;50.562;7.262;2023-06-14T02:29:39;14.90;99.90
25550;DHT22;13444;50.562;7.262;2023-06-14T02:32:05;14.80;99.90
25550;DHT22;13444;50.562;7.262;2023-06-14T02:34:33;14.70;99.90
25550;DHT22;13444;50.562;7.262;2023-06-14T02:36:59;14.60;99.90
25550;DHT22;13444;50.562;7.262;2023-06-14T02:39:24;14.60;99.90
25550;DHT22;13444;50.562;7.262;2023-06-14T02:41:50;14.60;99.90
25550;DHT22;13444;50.562;7.262;2023-06-14T02:44:18;14.60;99.90
25550;DHT22;13444;50.562;7.262;2023-06-14T02:46:44;14.50;99.90
25550;DHT22;13444;50.562;7.262;2023-06-14T02:49:13;14.50;99.90
25550;DHT22;13444;50.562;7.262;2023-06-14T02:51:39;14.50;99.90
25550;DHT22;13444;50.562;7.262;2023-06-14T02:54:05;14.50;99.90
25550;DHT22;13444;50.562;7.262;2023-06-14T02:56:31;14.50;99.90
25550;DHT22;13444;50.562;7.262;2023-06-14T02:58:56;14.40;99.90
25550;DHT22;13444;50.562;7.262;2023-06-14T03:01:22;14.30;99.90
25550;DHT22;13444;50.562;7.262;2023-06-14T03:03:48;14.40;99.90
25550;DHT22;13444;50.562;7.262;2023-06-14T03:06:14;14.40;99.90
25550;DHT22;13444;50.562;7.262;2023-06-14T03:08:42;14.40;99.90
25550;DHT22;13444;50.562;7.262;2023-06-14T03:11:07;14.40;99.90
25550;DHT22;13444;50.562;7.262;2023-06-14T03:13:36;14.30;99.90
25550;DHT22;13444;50.562;7.262;2023-06-14T03:16:03;14.30;99.90
25550;DHT22;13444;50.562;7.262;2023-06-14T03:18:31;14.30;99.90
25550;DHT22;13444;50.562;7.262;2023-06-14T03:21:01;14.30;99.90
25550;DHT22;13444;50.562;7.262;2023-06-14T03:23:26;14.30;99.90
25550;DHT22;13444;50.562;7.262;2023-06-14T03:25:52;14.30;99.90
25550;DHT22;13444;50.562;7.262;2023-06-14T03:28:18;14.30;99.90
25550;DHT22;13444;50.562;7.262;2023-06-14T03:30:44;14.30;99.90
25550;DHT22;13444;50.562;7.262;2023-06-14T03:33:09;14.20;99.90
25550;DHT22;13444;50.562;7.262;2023-06-14T03:35:35;14.20;99.90
25550;DHT22;13444;50.562;7.262;2023-06-14T03:38:01;14.10;99.90
25550;DHT22;13444;50.562;7.262;2023-06-14T03:40:28;14.00;99.90
25550;DHT22;13444;50.562;7.262;2023-06-14T03:42:54;14.00;99.90
25550;DHT22;13444;50.562;7.262;2023-06-14T03:45:20;14.00;99.90
25550;DHT22;13444;50.562;7.262;2023-06-14T03:47:45;14.00;99.90
25550;DHT22;13444;50.562;7.262;2023-06-14T03:50:11;13.90;99.90
25550;DHT22;13444;50.562;7.262;2023-06-14T03:52:37;13.80;99.90
25550;DHT22;13444;50.562;7.262;2023-06-14T03:55:03;13.90;99.90
25550;DHT22;13444;50.562;7.262;2023-06-14T03:57:30;13.90;99.90
25550;DHT22;13444;50.562;7.262;2023-06-14T03:59:56;14.00;99.90
25550;DHT22;13444;50.562;7.262;2023-06-14T04:02:21;14.00;99.90
25550;DHT22;13444;50.562;7.262;2023-06-14T04:04:48;14.10;99.90
25550;DHT22;13444;50.562;7.262;2023-06-14T04:07:15;14.10;99.90
25550;DHT22;13444;50.562;7.262;2023-06-14T04:09:44;14.10;99.90
25550;DHT22;13444;50.562;7.262;2023-06-14T04:12:10;14.10;99.90
25550;DHT22;13444;50.562;7.262;2023-06-14T04:14:40;14.10;99.90
25550;DHT22;13444;50.562;7.262;2023-06-14T04:17:06;14.10;99.90
25550;DHT22;13444;50.562;7.262;2023-06-14T04:19:32;14.10;99.90
25550;DHT22;13444;50.562;7.262;2023-06-14T04:22:01;14.10;99.90
25550;DHT22;13444;50.562;7.262;2023-06-14T04:24:27;14.10;99.90
25550;DHT22;13444;50.562;7.262;2023-06-14T04:27:00;14.10;99.90
25550;DHT22;13444;50.562;7.262;2023-06-14T04:29:26;14.10;99.90
25550;DHT22;13444;50.562;7.262;2023-06-14T04:31:54;14.10;99.90
25550;DHT22;13444;50.562;7.262;2023-06-14T04:34:20;14.20;99.90
25550;DHT22;13444;50.562;7.262;2023-06-14T04:36:47;14.20;99.90
25550;DHT22;13444;50.562;7.262;2023-06-14T04:39:18;14.30;99.90
25550;DHT22;13444;50.562;7.262;2023-06-14T04:41:44;14.30;99.90
25550;DHT22;13444;50.562;7.262;2023-06-14T04:44:10;14.40;99.90
25550;DHT22;13444;50.562;7.262;2023-06-14T04:46:36;14.40;99.90
25550;DHT22;13444;50.562;7.262;2023-06-14T04:49:15;14.40;99.90
25550;DHT22;13444;50.562;7.262;2023-06-14T04:51:44;14.50;99.90
25550;DHT22;13444;50.562;7.262;2023-06-14T04:54:11;14.60;99.90
25550;DHT22;13444;50.562;7.262;2023-06-14T04:56:39;14.60;99.90
25550;DHT22;13444;50.562;7.262;2023-06-14T04:59:05;14.70;99.90
25550;DHT22;13444;50.562;7.262;2023-06-14T05:01:31;14.80;99.90
25550;DHT22;13444;50.562;7.262;2023-06-14T05:03:57;14.90;99.90
25550;DHT22;13444;50.562;7.262;2023-06-14T05:06:23;15.00;99.90
25550;DHT22;13444;50.562;7.262;2023-06-14T05:08:49;15.00;99.90
25550;DHT22;13444;50.562;7.262;2023-06-14T05:11:15;15.20;99.90
25550;DHT22;13444;50.562;7.262;2023-06-14T05:13:42;15.40;99.90
25550;DHT22;13444;50.562;7.262;2023-06-14T05:16:08;15.70;99.90
25550;DHT22;13444;50.562;7.262;2023-06-14T05:18:34;16.10;99.90
25550;DHT22;13444;50.562;7.262;2023-06-14T05:21:01;16.40;99.90
25550;DHT22;13444;50.562;7.262;2023-06-14T05:23:26;16.60;99.90
25550;DHT22;13444;50.562;7.262;2023-06-14T05:25:52;16.60;99.90
25550;DHT22;13444;50.562;7.262;2023-06-14T05:28:18;16.50;99.90
25550;DHT22;13444;50.562;7.262;2023-06-14T05:30:43;16.50;99.90
25550;DHT22;13444;50.562;7.262;2023-06-14T05:33:09;16.50;99.90
25550;DHT22;13444;50.562;7.262;2023-06-14T05:35:34;16.60;99.90
25550;DHT22;13444;50.562;7.262;2023-06-14T05:38:00;16.60;99.90
25550;DHT22;13444;50.562;7.262;2023-06-14T05:40:26;16.50;99.90
25550;DHT22;13444;50.562;7.262;2023-06-14T05:42:51;16.70;99.90
25550;DHT22;13444;50.562;7.262;2023-06-14T05:45:17;16.70;99.90
25550;DHT22;13444;50.562;7.262;2023-06-14T05:47:43;16.80;99.90
25550;DHT22;13444;50.562;7.262;2023-06-14T05:50:09;17.00;99.90
25550;DHT22;13444;50.562;7.262;2023-06-14T05:52:35;17.30;99.90
25550;DHT22;13444;50.562;7.262;2023-06-14T05:55:02;17.60;99.90
25550;DHT22;13444;50.562;7.262;2023-06-14T05:57:28;17.80;99.90
25550;DHT22;13444;50.562;7.262;2023-06-14T05:59:54;18.10;99.90
25550;DHT22;13444;50.562;7.262;2023-06-14T06:02:20;18.30;99.90
25550;DHT22;13444;50.562;7.262;2023-06-14T06:04:45;18.50;99.90
25550;DHT22;13444;50.562;7.262;2023-06-14T06:07:11;18.80;99.90
25550;DHT22;13444;50.562;7.262;2023-06-14T06:09:36;19.00;99.90
25550;DHT22;13444;50.562;7.262;2023-06-14T06:12:02;19.00;99.90
25550;DHT22;13444;50.562;7.262;2023-06-14T06:14:28;19.20;99.90
25550;DHT22;13444;50.562;7.262;2023-06-14T06:16:54;19.40;99.90
25550;DHT22;13444;50.562;7.262;2023-06-14T06:19:20;19.50;99.90
25550;DHT22;13444;50.562;7.262;2023-06-14T06:21:45;19.60;99.90
25550;DHT22;13444;50.562;7.262;2023-06-14T06:24:11;19.70;99.90
25550;DHT22;13444;50.562;7.262;2023-06-14T06:26:36;19.80;99.90
25550;DHT22;13444;50.562;7.262;2023-06-14T06:29:03;19.90;99.90
25550;DHT22;13444;50.562;7.262;2023-06-14T06:31:28;20.10;99.90
25550;DHT22;13444;50.562;7.262;2023-06-14T06:33:54;20.20;99.90
25550;DHT22;13444;50.562;7.262;2023-06-14T06:36:20;20.40;99.90
25550;DHT22;13444;50.562;7.262;2023-06-14T06:38:47;20.50;99.90
25550;DHT22;13444;50.562;7.262;2023-06-14T06:41:13;20.70;99.90
25550;DHT22;13444;50.562;7.262;2023-06-14T06:43:38;20.90;99.90
25550;DHT22;13444;50.562;7.262;2023-06-14T06:46:04;21.00;99.90
25550;DHT22;13444;50.562;7.262;2023-06-14T06:48:29;21.10;99.90
25550;DHT22;13444;50.562;7.262;2023-06-14T06:50:55;21.30;99.90
25550;DHT22;13444;50.562;7.262;2023-06-14T06:53:20;21.40;99.90
25550;DHT22;13444;50.562;7.262;2023-06-14T06:55:46;21.40;99.90
25550;DHT22;13444;50.562;7.262;2023-06-14T06:58:12;21.40;99.90
25550;DHT22;13444;50.562;7.262;2023-06-14T07:00:38;21.50;99.90
25550;DHT22;13444;50.562;7.262;2023-06-14T07:03:03;21.60;99.90
25550;DHT22;13444;50.562;7.262;2023-06-14T07:05:29;21.70;99.90
25550;DHT22;13444;50.562;7.262;2023-06-14T07:07:56;21.90;99.90
25550;DHT22;13444;50.562;7.262;2023-06-14T07:10:21;22.10;99.90
25550;DHT22;13444;50.562;7.262;2023-06-14T07:12:47;22.20;99.90
25550;DHT22;13444;50.562;7.262;2023-06-14T07:15:12;22.20;99.90
25550;DHT22;13444;50.562;7.262;2023-06-14T07:17:38;22.20;99.90
25550;DHT22;13444;50.562;7.262;2023-06-14T07:20:04;22.20;99.90
25550;DHT22;13444;50.562;7.262;2023-06-14T07:22:42;22.30;99.90
25550;DHT22;13444;50.562;7.262;2023-06-14T07:25:12;22.20;99.90
25550;DHT22;13444;50.562;7.262;2023-06-14T07:27:41;22.30;99.90
25550;DHT22;13444;50.562;7.262;2023-06-14T07:30:08;22.20;99.90
25550;DHT22;13444;50.562;7.262;2023-06-14T07:32:34;22.30;99.90
25550;DHT22;13444;50.562;7.262;2023-06-14T07:34:59;22.30;99.90
25550;DHT22;13444;50.562;7.262;2023-06-14T07:37:25;22.50;99.90
25550;DHT22;13444;50.562;7.262;2023-06-14T07:39:50;22.70;99.90
25550;DHT22;13444;50.562;7.262;2023-06-14T07:42:16;22.90;99.90
25550;DHT22;13444;50.562;7.262;2023-06-14T07:44:41;23.10;99.90
25550;DHT22;13444;50.562;7.262;2023-06-14T07:47:07;23.20;99.90
25550;DHT22;13444;50.562;7.262;2023-06-14T07:49:33;23.40;99.90
25550;DHT22;13444;50.562;7.262;2023-06-14T07:51:58;23.20;99.90
25550;DHT22;13444;50.562;7.262;2023-06-14T07:54:24;23.20;99.90
25550;DHT22;13444;50.562;7.262;2023-06-14T07:56:51;23.40;99.90
25550;DHT22;13444;50.562;7.262;2023-06-14T07:59:17;23.50;99.90
25550;DHT22;13444;50.562;7.262;2023-06-14T08:01:43;23.40;99.90
25550;DHT22;13444;50.562;7.262;2023-06-14T08:04:13;23.50;99.90
25550;DHT22;13444;50.562;7.262;2023-06-14T08:06:38;23.40;99.90
25550;DHT22;13444;50.562;7.262;2023-06-14T08:09:05;23.60;99.90
25550;DHT22;13444;50.562;7.262;2023-06-14T08:11:31;23.80;99.90
25550;DHT22;13444;50.562;7.262;2023-06-14T08:13:56;23.80;99.90
25550;DHT22;13444;50.562;7.262;2023-06-14T08:16:22;24.10;99.90
25550;DHT22;13444;50.562;7.262;2023-06-14T08:18:48;24.20;99.90
25550;DHT22;13444;50.562;7.262;2023-06-14T08:21:14;24.20;99.90
25550;DHT22;13444;50.562;7.262;2023-06-14T08:23:40;24.40;99.90
25550;DHT22;13444;50.562;7.262;2023-06-14T08:26:08;24.60;99.90
25550;DHT22;13444;50.562;7.262;2023-06-14T08:28:34;24.60;99.90
25550;DHT22;13444;50.562;7.262;2023-06-14T08:30:59;24.70;99.90
25550;DHT22;13444;50.562;7.262;2023-06-14T08:33:25;24.80;99.90
25550;DHT22;13444;50.562;7.262;2023-06-14T08:35:51;25.00;99.90
25550;DHT22;13444;50.562;7.262;2023-06-14T08:38:16;25.20;99.90
25550;DHT22;13444;50.562;7.262;2023-06-14T08:40:42;25.60;99.90
25550;DHT22;13444;50.562;7.262;2023-06-14T08:43:08;26.00;99.90
25550;DHT22;13444;50.562;7.262;2023-06-14T08:45:33;26.30;99.90
25550;DHT22;13444;50.562;7.262;2023-06-14T08:47:59;26.40;99.90
25550;DHT22;13444;50.562;7.262;2023-06-14T08:50:25;26.70;99.90
25550;DHT22;13444;50.562;7.262;2023-06-14T08:52:59;26.90;98.00
25550;DHT22;13444;50.562;7.262;2023-06-14T08:55:29;26.80;96.80
25550;DHT22;13444;50.562;7.262;2023-06-14T08:57:56;26.80;96.60
25550;DHT22;13444;50.562;7.262;2023-06-14T09:00:26;26.90;93.80
25550;DHT22;13444;50.562;7.262;2023-06-14T09:02:53;27.10;93.60
25550;DHT22;13444;50.562;7.262;2023-06-14T09:05:27;27.30;94.20
25550;DHT22;13444;50.562;7.262;2023-06-14T09:07:53;27.70;92.30
25550;DHT22;13444;50.562;7.262;2023-06-14T09:10:22;27.90;91.00
25550;DHT22;13444;50.562;7.262;2023-06-14T09:12:47;27.80;90.50
25550;DHT22;13444;50.562;7.262;2023-06-14T09:15:13;27.90;91.30
25550;DHT22;13444;50.562;7.262;2023-06-14T09:17:40;27.40;90.30
25550;DHT22;13444;50.562;7.262;2023-06-14T09:20:07;27.50;90.30
25550;DHT22;13444;50.562;7.262;2023-06-14T09:22:38;27.60;90.80
25550;DHT22;13444;50.562;7.262;2023-06-14T09:25:04;27.50;90.30
25550;DHT22;13444;50.562;7.262;2023-06-14T09:27:31;27.70;91.30
25550;DHT22;13444;50.562;7.262;2023-06-14T09:29:56;27.80;90.30
25550;DHT22;13444;50.562;7.262;2023-06-14T09:32:22;27.70;89.30
25550;DHT22;13444;50.562;7.262;2023-06-14T09:34:49;27.50;88.70
25550;DHT22;13444;50.562;7.262;2023-06-14T09:37:31;27.40;90.40
25550;DHT22;13444;50.562;7.262;2023-06-14T09:39:57;27.30;87.10
25550;DHT22;13444;50.562;7.262;2023-06-14T09:42:23;27.40;88.30
25550;DHT22;13444;50.562;7.262;2023-06-14T09:44:52;27.50;89.20
25550;DHT22;13444;50.562;7.262;2023-06-14T09:47:19;27.90;89.10
25550;DHT22;13444;50.562;7.262;2023-06-14T09:49:45;28.00;88.30
25550;DHT22;13444;50.562;7.262;2023-06-14T09:52:14;28.20;87.90
25550;DHT22;13444;50.562;7.262;2023-06-14T09:54:41;28.50;85.80
25550;DHT22;13444;50.562;7.262;2023-06-14T09:57:10;28.60;85.60
25550;DHT22;13444;50.562;7.262;2023-06-14T09:59:42;28.60;84.60
25550;DHT22;13444;50.562;7.262;2023-06-14T10:02:18;28.80;84.50
25550;DHT22;13444;50.562;7.262;2023-06-14T10:04:53;28.60;83.70
25550;DHT22;13444;50.562;7.262;2023-06-14T10:07:23;28.60;83.70
25550;DHT22;13444;50.562;7.262;2023-06-14T10:09:53;28.00;85.00
25550;DHT22;13444;50.562;7.262;2023-06-14T10:12:18;27.80;86.60
25550;DHT22;13444;50.562;7.262;2023-06-14T10:14:49;28.10;88.60
25550;DHT22;13444;50.562;7.262;2023-06-14T10:17:35;28.10;83.50
25550;DHT22;13444;50.562;7.262;2023-06-14T10:20:10;28.10;85.10
25550;DHT22;13444;50.562;7.262;2023-06-14T10:22:47;27.40;83.80
25550;DHT22;13444;50.562;7.262;2023-06-14T10:25:30;28.00;87.70
25550;DHT22;13444;50.562;7.262;2023-06-14T10:30:37;28.40;85.70
25550;DHT22;13444;50.562;7.262;2023-06-14T10:33:06;28.50;84.40
25550;DHT22;13444;50.562;7.262;2023-06-14T10:35:33;28.80;82.10
25550;DHT22;13444;50.562;7.262;2023-06-14T10:38:10;28.70;84.30
25550;DHT22;13444;50.562;7.262;2023-06-14T10:40:36;29.00;84.80
25550;DHT22;13444;50.562;7.262;2023-06-14T10:43:21;28.90;84.40
25550;DHT22;13444;50.562;7.262;2023-06-14T10:46:16;29.40;86.00
25550;DHT22;13444;50.562;7.262;2023-06-14T10:48:43;28.90;81.80
25550;DHT22;13444;50.562;7.262;2023-06-14T10:51:21;28.20;84.20
25550;DHT22;13444;50.562;7.262;2023-06-14T10:53:48;28.50;86.50
25550;DHT22;13444;50.562;7.262;2023-06-14T10:56:30;28.50;83.60
25550;DHT22;13444;50.562;7.262;2023-06-14T10:58:57;28.60;83.40
25550;DHT22;13444;50.562;7.262;2023-06-14T11:04:17;28.90;82.80
25550;DHT22;13444;50.562;7.262;2023-06-14T11:06:50;29.70;83.30
25550;DHT22;13444;50.562;7.262;2023-06-14T11:12:10;29.40;81.80
25550;DHT22;13444;50.562;7.262;2023-06-14T11:14:38;28.30;82.40
25550;DHT22;13444;50.562;7.262;2023-06-14T11:17:04;27.80;82.10
25550;DHT22;13444;50.562;7.262;2023-06-14T11:19:29;27.60;82.90
25550;DHT22;13444;50.562;7.262;2023-06-14T11:21:55;26.80;85.00
25550;DHT22;13444;50.562;7.262;2023-06-14T11:24:21;27.10;86.90
25550;DHT22;13444;50.562;7.262;2023-06-14T11:26:47;27.50;86.80
25550;DHT22;13444;50.562;7.262;2023-06-14T11:29:15;28.30;86.40
25550;DHT22;13444;50.562;7.262;2023-06-14T11:31:44;29.00;85.20
25550;DHT22;13444;50.562;7.262;2023-06-14T11:34:13;29.50;86.20
25550;DHT22;13444;50.562;7.262;2023-06-14T11:36:39;29.80;83.60
25550;DHT22;13444;50.562;7.262;2023-06-14T11:39:06;29.30;83.00
25550;DHT22;13444;50.562;7.262;2023-06-14T11:41:38;29.20;82.80
25550;DHT22;13444;50.562;7.262;2023-06-14T11:44:05;29.90;85.00
25550;DHT22;13444;50.562;7.262;2023-06-14T11:46:31;30.30;81.90
25550;DHT22;13444;50.562;7.262;2023-06-14T11:48:57;30.40;80.10
25550;DHT22;13444;50.562;7.262;2023-06-14T11:51:23;30.50;78.50
25550;DHT22;13444;50.562;7.262;2023-06-14T11:53:49;30.70;79.10
25550;DHT22;13444;50.562;7.262;2023-06-14T11:56:15;30.90;77.10
25550;DHT22;13444;50.562;7.262;2023-06-14T11:58:43;30.50;76.20
25550;DHT22;13444;50.562;7.262;2023-06-14T12:01:08;30.20;75.40
25550;DHT22;13444;50.562;7.262;2023-06-14T12:03:34;30.20;76.40
25550;DHT22;13444;50.562;7.262;2023-06-14T12:06:08;30.70;78.30
25550;DHT22;13444;50.562;7.262;2023-06-14T12:08:37;31.00;77.60
25550;DHT22;13444;50.562;7.262;2023-06-14T12:11:07;30.90;76.50
25550;DHT22;13444;50.562;7.262;2023-06-14T12:13:38;30.70;77.70
25550;DHT22;13444;50.562;7.262;2023-06-14T12:16:04;30.60;77.20
25550;DHT22;13444;50.562;7.262;2023-06-14T12:18:34;30.40;76.60
25550;DHT22;13444;50.562;7.262;2023-06-14T12:21:00;30.50;77.00
25550;DHT22;13444;50.562;7.262;2023-06-14T12:23:42;30.80;76.40
25550;DHT22;13444;50.562;7.262;2023-06-14T12:26:07;30.60;76.60
25550;DHT22;13444;50.562;7.262;2023-06-14T12:28:33;30.30;78.00
25550;DHT22;13444;50.562;7.262;2023-06-14T12:30:59;30.30;76.70
25550;DHT22;13444;50.562;7.262;2023-06-14T12:33:24;30.10;77.10
25550;DHT22;13444;50.562;7.262;2023-06-14T12:35:51;30.60;76.60
25550;DHT22;13444;50.562;7.262;2023-06-14T12:38:16;31.00;75.20
25550;DHT22;13444;50.562;7.262;2023-06-14T12:40:42;30.50;73.70
25550;DHT22;13444;50.562;7.262;2023-06-14T12:43:08;30.50;74.90
25550;DHT22;13444;50.562;7.262;2023-06-14T12:45:33;30.50;75.20
25550;DHT22;13444;50.562;7.262;2023-06-14T12:47:59;30.70;75.70
25550;DHT22;13444;50.562;7.262;2023-06-14T12:50:24;30.00;75.40
25550;DHT22;13444;50.562;7.262;2023-06-14T12:52:50;30.10;76.30
25550;DHT22;13444;50.562;7.262;2023-06-14T12:55:16;30.20;77.00
25550;DHT22;13444;50.562;7.262;2023-06-14T12:57:41;30.10;76.20
25550;DHT22;13444;50.562;7.262;2023-06-14T13:00:07;29.70;76.10
25550;DHT22;13444;50.562;7.262;2023-06-14T13:02:33;29.70;77.50
25550;DHT22;13444;50.562;7.262;2023-06-14T13:04:59;29.70;76.40
25550;DHT22;13444;50.562;7.262;2023-06-14T13:07:25;29.70;76.40
25550;DHT22;13444;50.562;7.262;2023-06-14T13:09:51;29.60;74.80
25550;DHT22;13444;50.562;7.262;2023-06-14T13:12:16;29.50;74.90
25550;DHT22;13444;50.562;7.262;2023-06-14T13:14:42;29.70;76.20
25550;DHT22;13444;50.562;7.262;2023-06-14T13:17:09;30.00;75.70
25550;DHT22;13444;50.562;7.262;2023-06-14T13:19:34;29.50;76.60
25550;DHT22;13444;50.562;7.262;2023-06-14T13:22:00;29.30;77.50
25550;DHT22;13444;50.562;7.262;2023-06-14T13:24:26;29.20;79.60
25550;DHT22;13444;50.562;7.262;2023-06-14T13:26:51;29.30;78.50
25550;DHT22;13444;50.562;7.262;2023-06-14T13:29:17;29.10;78.60
25550;DHT22;13444;50.562;7.262;2023-06-14T13:31:42;28.70;78.80
25550;DHT22;13444;50.562;7.262;2023-06-14T13:34:08;28.60;80.50
25550;DHT22;13444;50.562;7.262;2023-06-14T13:36:33;28.40;80.10
25550;DHT22;13444;50.562;7.262;2023-06-14T13:39:00;28.10;80.70
25550;DHT22;13444;50.562;7.262;2023-06-14T13:41:27;28.30;81.60
25550;DHT22;13444;50.562;7.262;2023-06-14T13:43:59;28.30;81.40
25550;DHT22;13444;50.562;7.262;2023-06-14T13:46:25;28.10;82.40
25550;DHT22;13444;50.562;7.262;2023-06-14T13:48:50;27.80;81.20
25550;DHT22;13444;50.562;7.262;2023-06-14T13:51:16;27.30;81.50
25550;DHT22;13444;50.562;7.262;2023-06-14T13:56:10;26.80;83.00
25550;DHT22;13444;50.562;7.262;2023-06-14T13:58:37;26.80;84.00
25550;DHT22;13444;50.562;7.262;2023-06-14T14:01:02;27.00;83.10
25550;DHT22;13444;50.562;7.262;2023-06-14T14:03:28;27.30;83.50
25550;DHT22;13444;50.562;7.262;2023-06-14T14:05:53;27.70;83.90
25550;DHT22;13444;50.562;7.262;2023-06-14T14:08:19;27.90;81.80
25550;DHT22;13444;50.562;7.262;2023-06-14T14:10:45;28.10;83.10
25550;DHT22;13444;50.562;7.262;2023-06-14T14:13:11;27.90;83.20
25550;DHT22;13444;50.562;7.262;2023-06-14T14:15:37;27.60;83.30
25550;DHT22;13444;50.562;7.262;2023-06-14T14:18:03;27.20;83.50
25550;DHT22;13444;50.562;7.262;2023-06-14T14:20:30;27.00;84.40
25550;DHT22;13444;50.562;7.262;2023-06-14T14:22:56;26.80;84.30
25550;DHT22;13444;50.562;7.262;2023-06-14T14:25:21;26.70;85.10
25550;DHT22;13444;50.562;7.262;2023-06-14T14:27:47;26.80;85.30
25550;DHT22;13444;50.562;7.262;2023-06-14T14:30:13;26.90;84.80
25550;DHT22;13444;50.562;7.262;2023-06-14T14:32:40;26.80;83.50
25550;DHT22;13444;50.562;7.262;2023-06-14T14:35:06;26.60;83.90
25550;DHT22;13444;50.562;7.262;2023-06-14T14:37:32;26.70;85.20
25550;DHT22;13444;50.562;7.262;2023-06-14T14:39:57;26.60;85.00
25550;DHT22;13444;50.562;7.262;2023-06-14T14:42:23;26.60;84.60
25550;DHT22;13444;50.562;7.262;2023-06-14T14:44:48;26.70;85.90
25550;DHT22;13444;50.562;7.262;2023-06-14T14:47:14;26.90;85.60
25550;DHT22;13444;50.562;7.262;2023-06-14T14:49:39;26.80;84.10
25550;DHT22;13444;50.562;7.262;2023-06-14T14:52:05;26.80;84.30
25550;DHT22;13444;50.562;7.262;2023-06-14T14:54:31;26.70;85.30
25550;DHT22;13444;50.562;7.262;2023-06-14T14:56:56;26.50;84.70
25550;DHT22;13444;50.562;7.262;2023-06-14T14:59:22;26.50;85.50
25550;DHT22;13444;50.562;7.262;2023-06-14T15:01:47;26.50;85.70
25550;DHT22;13444;50.562;7.262;2023-06-14T15:04:13;26.60;85.90
25550;DHT22;13444;50.562;7.262;2023-06-14T15:06:38;26.70;86.10
25550;DHT22;13444;50.562;7.262;2023-06-14T15:09:06;26.80;88.30
25550;DHT22;13444;50.562;7.262;2023-06-14T15:11:31;26.80;86.10
25550;DHT22;13444;50.562;7.262;2023-06-14T15:13:57;26.70;84.70
25550;DHT22;13444;50.562;7.262;2023-06-14T15:16:22;26.50;84.20
25550;DHT22;13444;50.562;7.262;2023-06-14T15:18:48;26.20;84.70
25550;DHT22;13444;50.562;7.262;2023-06-14T15:21:14;26.00;85.30
25550;DHT22;13444;50.562;7.262;2023-06-14T15:23:39;26.10;86.40
25550;DHT22;13444;50.562;7.262;2023-06-14T15:26:05;26.30;86.30
25550;DHT22;13444;50.562;7.262;2023-06-14T15:28:30;26.50;86.50
25550;DHT22;13444;50.562;7.262;2023-06-14T15:30:58;26.70;85.50
25550;DHT22;13444;50.562;7.262;2023-06-14T15:33:24;26.60;84.10
25550;DHT22;13444;50.562;7.262;2023-06-14T15:35:49;26.30;85.30
25550;DHT22;13444;50.562;7.262;2023-06-14T15:38:15;26.30;85.70
25550;DHT22;13444;50.562;7.262;2023-06-14T15:40:40;26.20;85.20
25550;DHT22;13444;50.562;7.262;2023-06-14T15:43:06;26.10;86.40